createdAt,value
2023-03-28T00:02:17.910Z,99312.25
2023-03-28T00:05:03.706Z,99317.25
2023-03-28T00:07:47.398Z,99321.22
2023-03-28T00:10:34.402Z,99322.91
2023-03-28T00:13:18.163Z,99332.88
2023-03-28T00:16:07.548Z,99335.56
2023-03-28T00:18:48.018Z,99341.34
2023-03-28T00:21:35.980Z,99346.19
2023-03-28T00:24:21.180Z,99353.56
2023-03-28T00:27:01.995Z,99359.88
2023-03-28T00:29:51.146Z,99362.03
2023-03-28T00:32:29.296Z,99365.03
2023-03-28T00:35:26.060Z,99364.03
2023-03-28T00:38:03.926Z,99363.53
2023-03-28T00:40:48.822Z,99379.66
2023-03-28T00:43:49.487Z,99381.69
2023-03-28T00:46:37.228Z,99385.13
2023-03-28T00:49:28.695Z,99386.81
2023-03-28T00:52:11.398Z,99401.56
2023-03-28T00:54:55.646Z,99398.44
2023-03-28T00:57:37.156Z,99409.25
2023-03-28T01:00:23.967Z,99401.91
2023-03-28T01:03:01.854Z,99410.56
2023-03-28T01:05:43.018Z,99411.38
2023-03-28T01:08:29.673Z,99416.03
2023-03-28T01:11:08.962Z,99415.66
2023-03-28T01:13:56.814Z,99423.63
2023-03-28T01:16:42.240Z,99420.66
2023-03-28T01:19:30.357Z,99415.34
2023-03-28T01:22:29.300Z,99419.34
2023-03-28T01:25:29.214Z,99423.16
2023-03-28T01:28:13.899Z,99427.13
2023-03-28T01:31:33.622Z,99427.59
2023-03-28T01:35:17.380Z,99434.06
2023-03-28T01:38:13.648Z,99442.91
2023-03-28T01:41:05.933Z,99438.72
2023-03-28T01:44:16.648Z,99450.00
2023-03-28T01:47:01.477Z,99447.84
2023-03-28T01:49:58.511Z,99461.16
2023-03-28T01:52:44.211Z,99459.69
2023-03-28T01:56:00.610Z,99464.50
2023-03-28T01:59:20.952Z,99469.59
2023-03-28T02:02:30.574Z,99480.69
2023-03-28T02:05:29.554Z,99485.69
2023-03-28T02:08:14.783Z,99486.81
2023-03-28T02:11:07.819Z,99487.16
2023-03-28T02:14:12.103Z,99486.22
2023-03-28T02:16:58.839Z,99486.53
2023-03-28T02:19:51.739Z,99495.38
2023-03-28T02:22:54.384Z,99503.84
2023-03-28T02:25:49.385Z,99505.28
2023-03-28T02:28:51.899Z,99500.47
2023-03-28T02:31:48.113Z,99510.09
2023-03-28T02:34:32.506Z,99513.00
2023-03-28T02:37:29.993Z,99511.00
2023-03-28T02:40:32.718Z,99521.81
2023-03-28T02:43:44.942Z,99518.31
2023-03-28T02:46:56.284Z,99520.28
2023-03-28T02:49:54.331Z,99528.56
2023-03-28T02:52:37.083Z,99525.44
2023-03-28T02:55:45.687Z,99534.09
2023-03-28T02:59:25.914Z,99535.09
2023-03-28T03:02:08.932Z,99540.84
2023-03-28T03:04:51.390Z,99551.34
2023-03-28T03:07:31.174Z,99542.38
2023-03-28T03:10:22.838Z,99551.47
2023-03-28T03:13:03.467Z,99551.41
2023-03-28T03:15:52.287Z,99561.41
2023-03-28T03:18:37.170Z,99573.41
2023-03-28T03:21:18.978Z,99568.47
2023-03-28T03:24:06.333Z,99576.75
2023-03-28T03:26:52.279Z,99581.69
2023-03-28T03:29:38.302Z,99584.53
2023-03-28T03:32:33.851Z,99580.13
2023-03-28T03:35:24.399Z,99585.91
2023-03-28T03:38:04.591Z,99594.38
2023-03-28T03:40:42.216Z,99599.19
2023-03-28T03:43:24.037Z,99597.03
2023-03-28T03:46:03.223Z,99596.34
2023-03-28T03:48:50.080Z,99600.69
2023-03-28T03:51:34.152Z,99600.69
2023-03-28T03:54:20.891Z,99594.63
2023-03-28T03:57:03.549Z,99600.47
2023-03-28T03:59:44.866Z,99601.84
2023-03-28T04:02:27.002Z,99596.97
2023-03-28T04:05:13.632Z,99607.59
2023-03-28T04:08:15.555Z,99604.94
2023-03-28T04:11:00.355Z,99607.16
2023-03-28T04:13:50.179Z,99604.19
2023-03-28T04:16:40.274Z,99614.09
2023-03-28T04:19:19.950Z,99618.13
2023-03-28T04:22:13.148Z,99613.72
2023-03-28T04:25:10.021Z,99619.19
2023-03-28T04:27:56.281Z,99615.03
2023-03-28T04:30:38.935Z,99627.63
2023-03-28T04:33:27.908Z,99632.69
2023-03-28T04:36:06.172Z,99641.28
2023-03-28T04:38:54.565Z,99636.34
2023-03-28T04:41:57.764Z,99649.75
2023-03-28T04:45:00.130Z,99647.09
2023-03-28T04:47:48.475Z,99639.50
2023-03-28T04:50:39.339Z,99654.94
2023-03-28T04:53:26.818Z,99651.66
2023-03-28T04:56:26.871Z,99661.81
2023-03-28T04:59:05.935Z,99657.28
2023-03-28T05:01:53.609Z,99656.94
2023-03-28T05:04:54.364Z,99666.38
2023-03-28T05:07:40.957Z,99668.03
2023-03-28T05:10:21.845Z,99666.31
2023-03-28T05:13:05.082Z,99685.66
2023-03-28T05:15:57.323Z,99674.63
2023-03-28T05:19:19.794Z,99692.91
2023-03-28T05:22:14.815Z,99702.63
2023-03-28T05:24:54.099Z,99703.97
2023-03-28T05:27:46.580Z,99700.41
2023-03-28T05:30:31.915Z,99709.00
2023-03-28T05:33:22.822Z,99713.59
2023-03-28T05:36:02.101Z,99722.16
2023-03-28T05:38:48.469Z,99718.47
2023-03-28T05:41:32.993Z,99720.88
2023-03-28T05:44:18.964Z,99719.31
2023-03-28T05:47:31.100Z,99721.72
2023-03-28T05:50:12.828Z,99729.59
2023-03-28T05:52:54.295Z,99724.97
2023-03-28T05:55:40.694Z,99731.03
2023-03-28T05:58:21.624Z,99726.88
2023-03-28T06:01:06.657Z,99735.38
2023-03-28T06:03:53.188Z,99738.22
2023-03-28T06:06:37.562Z,99733.38
2023-03-28T06:09:23.705Z,99750.72
2023-03-28T06:12:10.630Z,99744.72
2023-03-28T06:14:56.822Z,99755.03
2023-03-28T06:17:44.947Z,99755.03
2023-03-28T06:20:32.848Z,99755.69
2023-03-28T06:23:19.091Z,99749.84
2023-03-28T06:26:10.874Z,99745.00
2023-03-28T06:28:57.896Z,99749.66
2023-03-28T06:31:50.131Z,99766.72
2023-03-28T06:34:44.610Z,99758.06
2023-03-28T06:37:28.945Z,99779.03
2023-03-28T06:40:17.874Z,99771.13
2023-03-28T06:42:58.089Z,99777.81
2023-03-28T06:45:51.900Z,99774.34
2023-03-28T06:48:33.609Z,99783.00
2023-03-28T06:51:47.348Z,99792.78
2023-03-28T06:54:26.158Z,99782.25
2023-03-28T06:57:10.516Z,99794.38
2023-03-28T07:00:11.140Z,99804.22
2023-03-28T07:03:17.610Z,99809.59
2023-03-28T07:06:03.581Z,99808.28
2023-03-28T07:08:46.846Z,99823.63
2023-03-28T07:11:30.231Z,99823.00
2023-03-28T07:14:11.472Z,99824.84
2023-03-28T07:16:46.886Z,99821.97
2023-03-28T07:19:36.877Z,99821.56
2023-03-28T07:22:15.812Z,99833.50
2023-03-28T07:24:51.902Z,99834.72
2023-03-28T07:27:33.849Z,99844.19
2023-03-28T07:30:17.798Z,99827.22
2023-03-28T07:33:17.447Z,99830.81
2023-03-28T07:36:08.680Z,99835.28
2023-03-28T07:38:50.008Z,99835.63
2023-03-28T07:41:35.847Z,99835.53
2023-03-28T07:44:22.275Z,99832.25
2023-03-28T07:47:09.801Z,99837.91
2023-03-28T07:49:52.070Z,99833.97
2023-03-28T07:52:34.885Z,99841.22
2023-03-28T07:55:24.105Z,99833.97
2023-03-28T07:58:09.694Z,99828.97
2023-03-28T08:00:54.818Z,99832.97
2023-03-28T08:03:59.764Z,99847.28
2023-03-28T08:07:02.865Z,99829.03
2023-03-28T08:10:05.393Z,99838.91
2023-03-28T08:12:55.819Z,99828.91
2023-03-28T08:15:36.633Z,99837.22
2023-03-28T08:18:18.634Z,99841.00
2023-03-28T08:21:04.728Z,99845.56
2023-03-28T08:23:47.826Z,99845.13
2023-03-28T08:26:34.590Z,99835.94
2023-03-28T08:29:21.647Z,99845.28
2023-03-28T08:32:18.793Z,99843.53
2023-03-28T08:34:59.848Z,99842.13
2023-03-28T08:37:42.888Z,99855.44
2023-03-28T08:40:23.072Z,99849.09
2023-03-28T08:43:19.925Z,99848.53
2023-03-28T08:46:20.143Z,99858.19
2023-03-28T08:49:13.840Z,99847.13
2023-03-28T08:51:55.170Z,99842.75
2023-03-28T08:54:50.605Z,99839.00
2023-03-28T08:57:40.804Z,99840.13
2023-03-28T09:00:56.315Z,99834.84
2023-03-28T09:03:35.483Z,99838.19
2023-03-28T09:06:32.213Z,99845.72
2023-03-28T09:09:34.371Z,99835.97
2023-03-28T09:12:47.933Z,99832.47
2023-03-28T09:16:45.900Z,99830.19
2023-03-28T09:19:48.776Z,99840.00
2023-03-28T09:23:01.786Z,99827.38
2023-03-28T09:26:25.636Z,99830.75
2023-03-28T09:29:29.779Z,99832.41
2023-03-28T09:32:16.095Z,99846.69
2023-03-28T09:35:19.443Z,99846.81
2023-03-28T09:38:05.808Z,99837.84
2023-03-28T09:40:47.811Z,99849.69
2023-03-28T09:47:28.226Z,99840.97
2023-03-28T09:50:25.338Z,99833.22
2023-03-28T09:53:22.175Z,99837.63
2023-03-28T09:56:12.417Z,99835.09
2023-03-28T09:59:07.427Z,99839.09
2023-03-28T10:02:03.266Z,99836.41
2023-03-28T10:04:52.248Z,99826.69
2023-03-28T10:08:06.703Z,99830.41
2023-03-28T10:11:07.683Z,99836.72
2023-03-28T10:14:00.138Z,99838.78
2023-03-28T10:16:42.637Z,99830.06
2023-03-28T10:19:43.259Z,99836.38
2023-03-28T10:22:33.954Z,99827.47
2023-03-28T10:25:20.759Z,99823.34
2023-03-28T10:28:08.246Z,99822.75
2023-03-28T10:30:47.503Z,99828.38
2023-03-28T10:33:57.610Z,99837.00
2023-03-28T10:37:00.384Z,99821.50
2023-03-28T10:40:05.826Z,99822.88
2023-03-28T10:43:17.108Z,99834.25
2023-03-28T10:46:17.321Z,99835.44
2023-03-28T10:50:00.585Z,99835.34
2023-03-28T10:53:15.183Z,99835.53
2023-03-28T10:56:12.515Z,99831.28
2023-03-28T10:59:47.040Z,99840.22
2023-03-28T11:02:40.861Z,99842.38
2023-03-28T11:06:05.661Z,99839.78
2023-03-28T11:08:52.746Z,99833.34
2023-03-28T11:11:44.795Z,99836.91
2023-03-28T11:15:13.643Z,99835.34
2023-03-28T11:18:23.170Z,99839.75
2023-03-28T11:21:32.513Z,99853.81
2023-03-28T11:24:50.562Z,99857.00
2023-03-28T11:27:58.976Z,99850.78
2023-03-28T11:30:52.081Z,99838.75
2023-03-28T11:33:55.384Z,99841.72
2023-03-28T11:36:44.828Z,99848.66
2023-03-28T11:39:56.227Z,99856.59
2023-03-28T11:43:00.777Z,99843.09
2023-03-28T11:46:06.033Z,99860.84
2023-03-28T11:49:01.310Z,99857.28
2023-03-28T11:52:01.284Z,99854.19
2023-03-28T11:55:06.373Z,99856.00
2023-03-28T11:58:00.949Z,99845.16
2023-03-28T12:00:51.211Z,99833.38
2023-03-28T12:03:42.784Z,99862.53
2023-03-28T12:06:32.821Z,99847.53
2023-03-28T12:09:17.291Z,99847.00
2023-03-28T12:11:58.431Z,99864.03
2023-03-28T12:14:52.257Z,99853.09
2023-03-28T12:18:14.234Z,99859.06
2023-03-28T12:20:56.230Z,99865.13
2023-03-28T12:24:12.933Z,99860.28
2023-03-28T12:27:25.758Z,99865.41
2023-03-28T12:30:25.777Z,99866.44
2023-03-28T12:33:19.565Z,99877.88
2023-03-28T12:36:34.279Z,99875.88
2023-03-28T12:39:35.011Z,99875.44
2023-03-28T12:42:23.328Z,99870.59
2023-03-28T12:45:20.258Z,99870.97
2023-03-28T12:48:03.635Z,99890.34
2023-03-28T12:51:02.713Z,99885.59
2023-03-28T12:53:54.724Z,99888.19
2023-03-28T12:56:42.115Z,99901.81
2023-03-28T12:59:45.499Z,99895.13
2023-03-28T13:02:50.754Z,99896.72
2023-03-28T13:05:51.824Z,99901.34
2023-03-28T13:09:18.078Z,99902.84
2023-03-28T13:12:22.700Z,99914.81
2023-03-28T13:15:27.171Z,99903.59
2023-03-28T13:18:23.388Z,99910.75
2023-03-28T13:21:07.384Z,99916.81
2023-03-28T13:23:54.407Z,99918.00
2023-03-28T13:26:56.364Z,99924.22
2023-03-28T13:30:05.157Z,99926.22
2023-03-28T13:32:54.957Z,99923.88
2023-03-28T13:35:57.570Z,99930.28
2023-03-28T13:38:50.857Z,99932.59
2023-03-28T13:42:10.693Z,99920.72
2023-03-28T13:45:02.252Z,99928.31
2023-03-28T13:47:44.658Z,99915.63
2023-03-28T13:50:34.015Z,99927.47
2023-03-28T13:53:17.949Z,99940.81
2023-03-28T13:56:35.434Z,99945.63
2023-03-28T13:59:37.892Z,99942.22
2023-03-28T14:02:36.578Z,99939.91
2023-03-28T14:05:31.799Z,99938.25
2023-03-28T14:08:26.918Z,99954.97
2023-03-28T14:11:07.769Z,99957.44
2023-03-28T14:13:52.148Z,99962.63
2023-03-28T14:16:30.858Z,99966.50
2023-03-28T14:19:14.263Z,99963.63
2023-03-28T14:22:03.343Z,99969.50
2023-03-28T14:24:58.587Z,99979.03
2023-03-28T14:27:56.226Z,99986.94
2023-03-28T14:30:44.102Z,99982.25
2023-03-28T14:33:33.522Z,99984.56
2023-03-28T14:36:21.055Z,99999.69
2023-03-28T14:39:31.789Z,100000.16
2023-03-28T14:42:12.787Z,100010.13
2023-03-28T14:45:02.751Z,100030.94
2023-03-28T14:47:48.809Z,100041.31
2023-03-28T14:50:40.154Z,100054.09
2023-03-28T14:53:34.253Z,100036.22
2023-03-28T14:56:31.810Z,100042.69
2023-03-28T14:59:10.051Z,100043.00
2023-03-28T15:01:58.899Z,100042.44
2023-03-28T15:04:38.521Z,100025.03
2023-03-28T15:07:41.536Z,100048.41
2023-03-28T15:10:32.661Z,100047.72
2023-03-28T15:13:23.466Z,100042.81
2023-03-28T15:16:08.065Z,100052.94
2023-03-28T15:19:11.197Z,100049.59
2023-03-28T15:21:54.557Z,100053.94
2023-03-28T15:24:38.813Z,100062.56
2023-03-28T15:27:46.885Z,100070.50
2023-03-28T15:30:28.793Z,100069.47
2023-03-28T15:33:19.137Z,100060.44
2023-03-28T15:36:26.961Z,100086.53
2023-03-28T15:39:33.791Z,100099.84
2023-03-28T15:42:29.543Z,100096.78
2023-03-28T15:45:32.218Z,100091.97
2023-03-28T15:48:19.909Z,100089.06
2023-03-28T15:51:14.626Z,100105.94
2023-03-28T15:53:58.955Z,100117.25
2023-03-28T15:56:35.700Z,100136.53
2023-03-28T15:59:31.595Z,100150.94
2023-03-28T16:02:38.972Z,100173.69
2023-03-28T16:05:40.944Z,100163.28
2023-03-28T16:08:31.249Z,100164.97
2023-03-28T16:11:06.432Z,100197.06
2023-03-28T16:13:57.183Z,100178.13
2023-03-28T16:16:58.528Z,100179.41
2023-03-28T16:19:48.908Z,100179.25
2023-03-28T16:22:27.822Z,100181.91
2023-03-28T16:25:11.649Z,100174.75
2023-03-28T16:28:07.156Z,100184.41
2023-03-28T16:30:48.796Z,100188.53
2023-03-28T16:33:37.238Z,100190.00
2023-03-28T16:36:17.292Z,100193.56
2023-03-28T16:38:56.404Z,100203.88
2023-03-28T16:41:43.780Z,100212.50
2023-03-28T16:44:27.496Z,100212.78
2023-03-28T16:47:26.125Z,100214.94
2023-03-28T16:50:04.169Z,100217.91
2023-03-28T16:52:48.100Z,100228.00
2023-03-28T16:55:24.969Z,100233.31
2023-03-28T16:58:01.165Z,100233.81
2023-03-28T17:00:49.845Z,100240.00
2023-03-28T17:03:38.599Z,100242.75
2023-03-28T17:06:18.536Z,100250.41
2023-03-28T17:09:02.111Z,100249.16
2023-03-28T17:11:42.912Z,100252.94
2023-03-28T17:14:25.575Z,100260.31
2023-03-28T17:17:15.014Z,100263.69
2023-03-28T17:20:01.410Z,100271.50
2023-03-28T17:22:48.099Z,100278.81
2023-03-28T17:25:30.950Z,100286.44
2023-03-28T17:28:16.264Z,100298.06
2023-03-28T17:31:10.668Z,100297.94
2023-03-28T17:33:59.997Z,100299.91
2023-03-28T17:36:43.280Z,100308.28
2023-03-28T17:39:30.042Z,100307.78
2023-03-28T17:42:05.792Z,100303.91
2023-03-28T17:44:54.561Z,100307.97
2023-03-28T17:47:33.102Z,100308.16
2023-03-28T17:50:16.415Z,100309.06
2023-03-28T17:52:57.538Z,100309.59
2023-03-28T17:55:36.004Z,100310.97
2023-03-28T17:58:22.974Z,100318.06
2023-03-28T18:01:05.404Z,100321.56
2023-03-28T18:03:46.327Z,100326.50
2023-03-28T18:06:47.951Z,100332.44
2023-03-28T18:09:28.250Z,100322.66
2023-03-28T18:12:07.120Z,100326.91
2023-03-28T18:14:51.098Z,100328.56
2023-03-28T18:17:43.919Z,100329.97
2023-03-28T18:20:24.925Z,100334.41
2023-03-28T18:23:08.240Z,100354.03
2023-03-28T18:26:00.172Z,100344.28
2023-03-28T18:28:52.739Z,100345.03
2023-03-28T18:31:36.475Z,100344.47
2023-03-28T18:34:30.113Z,100342.84
2023-03-28T18:37:12.064Z,100345.66
2023-03-28T18:39:52.424Z,100338.88
2023-03-28T18:42:35.776Z,100347.00
2023-03-28T18:45:15.052Z,100348.25
2023-03-28T18:48:04.249Z,100348.59
2023-03-28T18:50:46.958Z,100356.88
2023-03-28T18:53:32.259Z,100363.59
2023-03-28T18:56:19.824Z,100352.66
2023-03-28T18:59:04.249Z,100360.63
2023-03-28T19:01:51.580Z,100361.38
2023-03-28T19:04:32.655Z,100358.16
2023-03-28T19:07:13.517Z,100361.22
2023-03-28T19:09:59.784Z,100365.25
2023-03-28T19:12:43.534Z,100362.47
2023-03-28T19:15:18.693Z,100367.81
2023-03-28T19:18:05.703Z,100356.34
2023-03-28T19:20:51.194Z,100362.78
2023-03-28T19:23:44.174Z,100369.53
2023-03-28T19:26:18.775Z,100372.63
2023-03-28T19:28:56.029Z,100378.09
2023-03-28T19:31:34.242Z,100367.84
2023-03-28T19:34:30.252Z,100374.19
2023-03-28T19:37:17.609Z,100365.06
2023-03-28T19:40:00.431Z,100362.81
2023-03-28T19:42:38.751Z,100363.94
2023-03-28T19:45:25.299Z,100363.66
2023-03-28T19:48:06.250Z,100372.47
2023-03-28T19:50:50.736Z,100372.34
2023-03-28T19:53:33.981Z,100368.97
2023-03-28T19:56:17.131Z,100372.03
2023-03-28T19:59:00.702Z,100375.59
2023-03-28T20:01:39.039Z,100380.31
2023-03-28T20:04:27.738Z,100381.56
2023-03-28T20:07:08.527Z,100389.16
2023-03-28T20:09:53.044Z,100375.44
2023-03-28T20:12:44.772Z,100394.63
2023-03-28T20:15:34.423Z,100383.81
2023-03-28T20:18:15.803Z,100384.69
2023-03-28T20:21:02.273Z,100378.78
2023-03-28T20:23:43.793Z,100380.19
2023-03-28T20:26:30.839Z,100378.66
2023-03-28T20:29:19.461Z,100389.44
2023-03-28T20:32:01.733Z,100389.16
2023-03-28T20:34:45.544Z,100387.47
2023-03-28T20:37:32.595Z,100388.31
2023-03-28T20:40:13.775Z,100398.28
2023-03-28T20:42:57.370Z,100393.81
2023-03-28T20:45:46.180Z,100389.88
2023-03-28T20:48:34.597Z,100387.63
2023-03-28T20:51:23.475Z,100392.53
2023-03-28T20:54:06.585Z,100389.19
2023-03-28T20:56:47.462Z,100389.63
2023-03-28T20:59:28.679Z,100387.50
2023-03-28T21:02:14.604Z,100395.78
2023-03-28T21:04:52.228Z,100393.25
2023-03-28T21:07:42.991Z,100399.72
2023-03-28T21:10:35.581Z,100403.47
2023-03-28T21:13:13.071Z,100400.41
2023-03-28T21:15:54.122Z,100404.16
2023-03-28T21:18:34.982Z,100393.66
2023-03-28T21:21:29.682Z,100397.84
2023-03-28T21:24:12.514Z,100395.91
2023-03-28T21:26:50.337Z,100393.25
2023-03-28T21:29:30.695Z,100388.63
2023-03-28T21:32:17.803Z,100386.53
2023-03-28T21:34:58.728Z,100395.63
2023-03-28T21:37:40.054Z,100385.44
2023-03-28T21:40:26.821Z,100397.44
2023-03-28T21:43:26.338Z,100402.63
2023-03-28T21:46:08.404Z,100400.66
2023-03-28T21:48:53.895Z,100396.59
2023-03-28T21:51:41.220Z,100399.81
2023-03-28T21:54:16.714Z,100411.72
2023-03-28T21:57:02.664Z,100412.13
2023-03-28T21:59:49.592Z,100415.50
2023-03-28T22:02:24.993Z,100423.47
2023-03-28T22:05:18.526Z,100420.00
2023-03-28T22:08:09.664Z,100440.97
2023-03-28T22:11:02.353Z,100434.25
2023-03-28T22:13:43.422Z,100435.38
2023-03-28T22:16:32.602Z,100436.78
2023-03-28T22:19:23.685Z,100444.34
2023-03-28T22:22:03.989Z,100444.19
2023-03-28T22:24:47.374Z,100456.66
2023-03-28T22:27:32.045Z,100465.88
2023-03-28T22:30:19.171Z,100470.66
2023-03-28T22:33:02.569Z,100470.38
2023-03-28T22:35:46.292Z,100458.06
2023-03-28T22:38:36.560Z,100468.28
2023-03-28T22:41:11.337Z,100466.31
2023-03-28T22:44:00.126Z,100466.47
2023-03-28T22:46:43.945Z,100468.13
2023-03-28T22:49:27.680Z,100470.78
2023-03-28T22:52:13.737Z,100462.53
2023-03-28T22:55:03.065Z,100465.06
2023-03-28T22:57:54.318Z,100470.94
2023-03-28T23:00:35.082Z,100466.59
2023-03-28T23:03:16.096Z,100471.19
2023-03-28T23:05:55.370Z,100474.81
2023-03-28T23:08:38.349Z,100475.91
2023-03-28T23:11:16.662Z,100488.19
2023-03-28T23:13:57.665Z,100478.53
2023-03-28T23:16:47.129Z,100492.13
2023-03-28T23:19:27.184Z,100482.19
2023-03-28T23:22:07.370Z,100492.66
2023-03-28T23:24:49.906Z,100482.59
2023-03-28T23:27:32.963Z,100498.81
2023-03-28T23:30:20.763Z,100492.91
2023-03-28T23:33:04.524Z,100496.13
2023-03-28T23:35:48.405Z,100495.56
2023-03-28T23:38:29.017Z,100497.09
2023-03-28T23:41:04.350Z,100507.19
2023-03-28T23:43:50.765Z,100497.97
2023-03-28T23:46:31.980Z,100495.09
2023-03-28T23:49:16.059Z,100505.56
2023-03-28T23:51:59.913Z,100512.50
2023-03-28T23:54:40.705Z,100511.13
2023-03-28T23:57:25.063Z,100507.78
